createdAt,value
2023-04-02T01:23:33.989Z,72.47
2023-04-02T01:26:11.230Z,72.36
2023-04-02T01:29:01.697Z,72.44
2023-04-02T01:31:32.705Z,72.52
2023-04-02T01:34:07.082Z,72.69
2023-04-02T01:36:46.047Z,72.81
2023-04-02T01:39:27.564Z,72.85
2023-04-02T01:42:04.244Z,72.89
2023-04-02T01:44:39.015Z,72.99
2023-04-02T01:47:12.896Z,73.01
2023-04-02T01:49:44.285Z,73.02
2023-04-02T01:52:18.312Z,73.10
2023-04-02T01:54:48.103Z,73.08
2023-04-02T01:57:17.048Z,73.20
2023-04-02T01:59:49.508Z,73.11
2023-04-02T02:02:21.199Z,73.16
2023-04-02T02:04:51.215Z,73.14
2023-04-02T02:07:21.517Z,73.10
2023-04-02T02:09:54.128Z,73.19
2023-04-02T02:12:23.161Z,73.16
2023-04-02T02:14:52.633Z,73.20
2023-04-02T02:17:33.796Z,73.27
2023-04-02T02:20:10.429Z,73.18
2023-04-02T02:22:43.809Z,73.19
2023-04-02T02:25:16.982Z,73.22
2023-04-02T02:27:59.057Z,73.16
2023-04-02T02:30:31.498Z,73.22
2023-04-02T02:33:06.797Z,73.22
2023-04-02T02:35:42.987Z,73.22
2023-04-02T02:38:42.673Z,73.22
2023-04-02T02:41:24.418Z,73.20
2023-04-02T02:44:00.988Z,73.17
2023-04-02T02:46:32.155Z,73.19
2023-04-02T02:49:04.150Z,73.30
2023-04-02T02:51:44.688Z,73.23
2023-04-02T02:54:17.967Z,73.21
2023-04-02T02:56:51.135Z,73.26
2023-04-02T02:59:22.024Z,73.33
2023-04-02T03:01:53.516Z,73.37
2023-04-02T03:04:25.496Z,73.24
2023-04-02T03:06:57.870Z,73.33
2023-04-02T03:09:39.176Z,73.17
2023-04-02T03:12:21.789Z,73.25
2023-04-02T03:15:01.305Z,73.19
2023-04-02T03:17:36.965Z,73.23
2023-04-02T03:20:16.764Z,73.26
2023-04-02T03:22:51.780Z,73.14
2023-04-02T03:25:34.588Z,73.27
2023-04-02T03:28:12.395Z,73.27
2023-04-02T03:30:48.157Z,73.33
2023-04-02T03:33:23.736Z,73.33
2023-04-02T03:36:01.071Z,73.32
2023-04-02T03:38:34.397Z,73.25
2023-04-02T03:41:10.509Z,73.24
2023-04-02T03:43:46.399Z,73.18
2023-04-02T03:46:25.771Z,73.29
2023-04-02T03:48:59.036Z,73.32
2023-04-02T03:51:33.871Z,73.22
2023-04-02T03:54:05.415Z,73.26
2023-04-02T03:56:40.248Z,73.31
2023-04-02T03:59:20.912Z,73.28
2023-04-02T04:01:57.014Z,73.19
2023-04-02T04:04:30.138Z,73.21
2023-04-02T04:07:00.920Z,73.22
2023-04-02T04:09:35.578Z,73.24
2023-04-02T04:12:16.048Z,73.26
2023-04-02T04:14:54.220Z,73.26
2023-04-02T04:17:30.597Z,73.29
2023-04-02T04:20:14.412Z,73.24
2023-04-02T04:22:43.203Z,73.25
2023-04-02T04:25:22.484Z,73.23
2023-04-02T04:28:07.217Z,73.29
2023-04-02T04:30:50.320Z,73.30
2023-04-02T04:33:24.234Z,73.16
2023-04-02T04:35:59.542Z,73.18
2023-04-02T04:38:33.804Z,73.12
2023-04-02T04:41:06.509Z,73.17
2023-04-02T04:43:44.675Z,73.24
2023-04-02T04:46:20.502Z,73.30
2023-04-02T04:48:59.487Z,73.29
2023-04-02T04:51:33.724Z,73.39
2023-04-02T04:54:03.905Z,73.36
2023-04-02T04:56:33.596Z,73.37
2023-04-02T04:59:19.045Z,73.39
2023-04-02T05:01:53.353Z,73.41
2023-04-02T05:04:29.262Z,73.47
2023-04-02T05:07:07.065Z,73.46
2023-04-02T05:09:40.424Z,73.43
2023-04-02T05:12:21.799Z,73.37
2023-04-02T05:14:57.339Z,73.51
2023-04-02T05:17:32.649Z,73.54
2023-04-02T05:20:11.416Z,73.46
2023-04-02T05:22:47.053Z,73.50
2023-04-02T05:25:24.694Z,73.50
2023-04-02T05:28:00.147Z,73.52
2023-04-02T05:30:52.120Z,73.53
2023-04-02T05:33:26.981Z,73.57
2023-04-02T05:36:01.525Z,73.44
2023-04-02T05:38:34.261Z,73.54
2023-04-02T05:41:06.926Z,73.44
2023-04-02T05:43:39.280Z,73.41
2023-04-02T05:46:17.504Z,73.46
2023-04-02T05:48:50.554Z,73.49
2023-04-02T05:51:28.217Z,73.59
2023-04-02T05:54:00.592Z,73.56
2023-04-02T05:56:36.243Z,73.58
2023-04-02T05:59:11.833Z,73.61
2023-04-02T06:01:46.908Z,73.66
2023-04-02T06:04:25.745Z,73.60
2023-04-02T06:07:03.444Z,73.62
2023-04-02T06:09:40.991Z,73.55
2023-04-02T06:12:22.079Z,73.55
2023-04-02T06:14:51.930Z,73.59
2023-04-02T06:17:23.394Z,73.65
2023-04-02T06:19:56.133Z,73.52
2023-04-02T06:22:32.584Z,73.74
2023-04-02T06:25:05.978Z,73.56
2023-04-02T06:27:43.112Z,73.59
2023-04-02T06:30:21.212Z,73.61
2023-04-02T06:32:52.628Z,73.58
2023-04-02T06:35:23.051Z,73.54
2023-04-02T06:38:04.985Z,73.47
2023-04-02T06:40:42.271Z,73.45
2023-04-02T06:43:36.139Z,73.43
2023-04-02T06:46:23.575Z,73.42
2023-04-02T06:49:11.828Z,73.55
2023-04-02T06:51:42.333Z,73.41
2023-04-02T06:54:16.380Z,73.42
2023-04-02T06:56:48.280Z,73.44
2023-04-02T06:59:26.831Z,73.45
2023-04-02T07:02:00.476Z,73.46
2023-04-02T07:04:30.198Z,73.08
2023-04-02T07:06:59.723Z,73.15
2023-04-02T07:09:32.637Z,73.14
2023-04-02T07:12:11.451Z,73.24
2023-04-02T07:14:40.665Z,73.19
2023-04-02T07:17:16.609Z,73.21
2023-04-02T07:19:49.124Z,73.20
2023-04-02T07:22:20.746Z,73.30
2023-04-02T07:24:56.684Z,73.24
2023-04-02T07:27:25.641Z,73.23
2023-04-02T07:29:55.415Z,73.17
2023-04-02T07:32:26.791Z,73.34
2023-04-02T07:34:57.050Z,73.37
2023-04-02T07:37:26.007Z,73.19
2023-04-02T07:39:55.077Z,73.20
2023-04-02T07:42:24.353Z,73.37
2023-04-02T07:44:53.119Z,73.28
2023-04-02T07:47:22.559Z,73.44
2023-04-02T07:49:56.579Z,73.37
2023-04-02T07:52:25.471Z,73.39
2023-04-02T07:54:54.572Z,73.43
2023-04-02T07:57:23.458Z,73.34
2023-04-02T07:59:55.913Z,73.33
2023-04-02T08:02:25.584Z,73.33
2023-04-02T08:04:55.152Z,73.29
2023-04-02T08:07:24.432Z,73.37
2023-04-02T08:09:53.733Z,73.13
2023-04-02T08:12:23.029Z,73.35
2023-04-02T08:14:52.336Z,73.38
2023-04-02T08:17:21.108Z,73.32
2023-04-02T08:19:55.058Z,73.39
2023-04-02T08:22:24.231Z,73.40
2023-04-02T08:24:53.971Z,73.28
2023-04-02T08:27:22.933Z,73.33
2023-04-02T08:29:51.838Z,73.39
2023-04-02T08:32:21.532Z,73.38
2023-04-02T08:34:52.916Z,73.24
2023-04-02T08:37:24.336Z,73.21
2023-04-02T08:39:53.271Z,73.29
2023-04-02T08:42:29.241Z,73.39
2023-04-02T08:45:24.320Z,73.22
2023-04-02T08:47:57.433Z,73.31
2023-04-02T08:50:32.489Z,73.29
2023-04-02T08:53:04.252Z,73.21
2023-04-02T08:55:42.490Z,73.22
2023-04-02T08:58:26.661Z,73.19
2023-04-02T09:00:57.763Z,73.16
2023-04-02T09:03:31.141Z,73.28
2023-04-02T09:06:03.978Z,73.28
2023-04-02T09:08:34.902Z,73.30
2023-04-02T09:11:08.939Z,73.25
2023-04-02T09:13:46.905Z,73.43
2023-04-02T09:16:21.834Z,73.47
2023-04-02T09:18:53.084Z,73.45
2023-04-02T09:21:34.450Z,73.46
2023-04-02T09:24:05.223Z,73.45
2023-04-02T09:26:41.287Z,73.49
2023-04-02T09:29:37.233Z,73.37
2023-04-02T09:32:25.345Z,73.42
2023-04-02T09:35:12.437Z,73.28
2023-04-02T09:37:48.373Z,73.40
2023-04-02T09:40:26.089Z,73.33
2023-04-02T09:43:13.113Z,73.35
2023-04-02T09:45:55.263Z,73.43
2023-04-02T09:48:38.186Z,73.53
2023-04-02T09:51:23.466Z,73.49
2023-04-02T09:54:09.865Z,73.47
2023-04-02T09:57:01.574Z,73.38
2023-04-02T09:59:32.616Z,73.31
2023-04-02T10:02:28.854Z,73.32
2023-04-02T10:05:10.548Z,73.19
2023-04-02T10:07:49.621Z,73.23
2023-04-02T10:10:29.228Z,73.32
2023-04-02T10:13:06.486Z,73.32
2023-04-02T10:15:45.898Z,73.31
2023-04-02T10:18:28.416Z,73.46
2023-04-02T10:21:04.589Z,73.43
2023-04-02T10:23:38.376Z,73.32
2023-04-02T10:26:41.769Z,73.31
2023-04-02T10:29:37.530Z,73.09
2023-04-02T10:32:19.145Z,73.11
2023-04-02T10:35:00.672Z,73.32
2023-04-02T10:38:07.160Z,73.21
2023-04-02T10:40:40.309Z,73.21
2023-04-02T10:43:49.492Z,73.19
2023-04-02T10:46:29.335Z,73.23
2023-04-02T10:49:14.978Z,73.24
2023-04-02T10:51:54.283Z,73.36
2023-04-02T10:54:38.337Z,73.31
2023-04-02T10:57:18.483Z,73.40
2023-04-02T11:00:07.628Z,73.36
2023-04-02T11:02:44.815Z,73.23
2023-04-02T11:05:21.367Z,73.28
2023-04-02T11:08:21.879Z,73.29
2023-04-02T11:10:59.409Z,73.33
2023-04-02T11:13:31.320Z,73.32
2023-04-02T11:16:00.754Z,73.36
2023-04-02T11:18:36.071Z,73.32
2023-04-02T11:21:10.701Z,73.28
2023-04-02T11:24:01.144Z,73.28
2023-04-02T11:26:36.855Z,73.53
2023-04-02T11:29:28.358Z,73.45
2023-04-02T11:32:29.742Z,73.39
2023-04-02T11:35:24.252Z,73.45
2023-04-02T11:37:56.247Z,73.45
2023-04-02T11:40:47.986Z,73.57
2023-04-02T11:43:48.862Z,73.57
2023-04-02T11:46:45.674Z,73.48
2023-04-02T11:49:50.009Z,73.48
2023-04-02T11:52:25.867Z,73.53
2023-04-02T11:55:01.642Z,73.60
2023-04-02T11:57:51.756Z,73.78
2023-04-02T12:00:43.977Z,73.76
2023-04-02T12:03:31.912Z,73.71
2023-04-02T12:06:11.981Z,73.70
2023-04-02T12:08:57.675Z,73.71
2023-04-02T12:11:35.781Z,73.78
2023-04-02T12:14:22.257Z,73.92
2023-04-02T12:16:52.903Z,73.81
2023-04-02T12:19:22.005Z,73.72
2023-04-02T12:21:53.068Z,73.89
2023-04-02T12:24:24.936Z,73.70
2023-04-02T12:27:14.875Z,73.82
2023-04-02T12:29:44.211Z,73.81
2023-04-02T12:32:23.838Z,73.64
2023-04-02T12:34:52.957Z,73.83
2023-04-02T12:37:25.205Z,73.70
2023-04-02T12:39:57.034Z,73.64
2023-04-02T12:42:32.963Z,73.81
2023-04-02T12:45:03.357Z,73.88
2023-04-02T12:47:34.700Z,73.84
2023-04-02T12:50:03.714Z,73.72
2023-04-02T12:52:32.599Z,73.66
2023-04-02T12:55:04.394Z,73.65
2023-04-02T12:57:39.002Z,73.83
2023-04-02T13:00:30.708Z,73.83
2023-04-02T13:03:21.364Z,73.81
2023-04-02T13:05:54.852Z,73.81
2023-04-02T13:08:26.845Z,73.83
2023-04-02T13:11:01.389Z,73.82
2023-04-02T13:13:35.415Z,73.96
2023-04-02T13:16:20.017Z,73.97
2023-04-02T13:18:50.508Z,73.91
2023-04-02T13:21:28.346Z,73.91
2023-04-02T13:23:57.964Z,73.91
2023-04-02T13:26:29.075Z,73.99
2023-04-02T13:29:00.106Z,73.99
2023-04-02T13:31:31.036Z,73.89
2023-04-02T13:34:00.930Z,73.82
2023-04-02T13:36:33.381Z,73.82
2023-04-02T13:39:02.269Z,74.11
2023-04-02T13:41:36.814Z,74.03
2023-04-02T13:44:06.321Z,74.08
2023-04-02T13:46:38.050Z,73.94
2023-04-02T13:49:09.745Z,73.83
2023-04-02T13:51:44.232Z,73.82
2023-04-02T13:54:19.706Z,73.88
2023-04-02T13:56:52.452Z,73.98
2023-04-02T13:59:21.551Z,73.96
2023-04-02T14:01:53.295Z,73.88
2023-04-02T14:04:27.467Z,73.93
2023-04-02T14:07:12.743Z,73.83
2023-04-02T14:10:00.605Z,73.89
2023-04-02T14:12:43.132Z,73.77
2023-04-02T14:15:34.690Z,73.72
2023-04-02T14:18:36.056Z,73.75
2023-04-02T14:21:26.027Z,73.73
2023-04-02T14:24:16.249Z,73.74
2023-04-02T14:26:57.624Z,73.84
2023-04-02T14:29:36.074Z,73.93
2023-04-02T14:32:16.578Z,73.64
2023-04-02T14:34:56.816Z,73.84
2023-04-02T14:37:33.476Z,73.72
2023-04-02T14:40:19.522Z,73.71
2023-04-02T14:42:57.849Z,73.75
2023-04-02T14:45:40.448Z,73.89
2023-04-02T14:48:27.930Z,73.80
2023-04-02T14:51:01.676Z,73.89
2023-04-02T14:53:36.791Z,73.80
2023-04-02T14:56:10.426Z,73.88
2023-04-02T14:58:51.490Z,73.83
2023-04-02T15:01:25.256Z,73.91
2023-04-02T15:03:59.283Z,73.87
2023-04-02T15:06:34.444Z,73.88
2023-04-02T15:09:13.476Z,73.77
2023-04-02T15:11:48.258Z,73.83
2023-04-02T15:14:23.614Z,73.90
2023-04-02T15:16:55.413Z,73.97
2023-04-02T15:19:25.158Z,73.98
2023-04-02T15:22:12.304Z,73.90
2023-04-02T15:24:52.700Z,73.98
2023-04-02T15:27:51.539Z,74.12
2023-04-02T15:30:24.650Z,74.00
2023-04-02T15:33:18.725Z,73.99
2023-04-02T15:35:52.811Z,73.98
2023-04-02T15:38:26.283Z,73.94
2023-04-02T15:41:01.859Z,73.95
2023-04-02T15:43:37.067Z,74.00
2023-04-02T15:46:15.684Z,74.04
2023-04-02T15:49:05.181Z,73.93
2023-04-02T15:51:50.775Z,73.93
2023-04-02T15:54:37.045Z,74.17
2023-04-02T15:57:18.082Z,73.89
2023-04-02T16:00:12.239Z,73.86
2023-04-02T16:03:02.161Z,73.94
2023-04-02T16:05:40.098Z,73.69
2023-04-02T16:08:24.552Z,73.76
2023-04-02T16:10:54.156Z,73.73
2023-04-02T16:13:29.885Z,73.71
2023-04-02T16:16:05.056Z,73.76
2023-04-02T16:18:44.639Z,73.85
2023-04-02T16:21:19.422Z,74.01
2023-04-02T16:23:48.118Z,73.94
2023-04-02T16:26:36.832Z,74.02
2023-04-02T16:29:20.861Z,74.06
2023-04-02T16:31:57.194Z,74.10
2023-04-02T16:34:39.902Z,74.20
2023-04-02T16:37:17.949Z,74.16
2023-04-02T16:39:51.616Z,74.24
2023-04-02T16:42:31.731Z,74.24
2023-04-02T16:45:16.925Z,74.24
2023-04-02T16:47:58.600Z,74.11
2023-04-02T16:50:37.316Z,74.37
2023-04-02T16:53:19.247Z,74.41
2023-04-02T16:56:02.294Z,74.41
2023-04-02T16:58:46.687Z,74.40
2023-04-02T17:01:27.405Z,74.40
2023-04-02T17:04:16.298Z,74.49
2023-04-02T17:06:56.911Z,74.42
2023-04-02T17:09:34.795Z,74.45
2023-04-02T17:12:16.371Z,74.48
2023-04-02T17:14:52.348Z,74.38
2023-04-02T17:17:23.350Z,74.54
2023-04-02T17:19:56.231Z,74.57
2023-04-02T17:22:26.037Z,74.49
2023-04-02T17:25:01.601Z,74.63
2023-04-02T17:27:35.459Z,74.58
2023-04-02T17:30:13.224Z,74.64
2023-04-02T17:32:42.173Z,74.58
2023-04-02T17:35:22.570Z,74.64
2023-04-02T17:38:00.553Z,74.64
2023-04-02T17:40:34.819Z,74.70
2023-04-02T17:43:13.591Z,74.70
2023-04-02T17:45:51.127Z,74.60
2023-04-02T17:48:26.994Z,74.76
2023-04-02T17:51:08.826Z,74.62
2023-04-02T17:53:49.204Z,74.62
2023-04-02T17:56:38.258Z,74.66
2023-04-02T17:59:26.559Z,74.75
2023-04-02T18:02:13.759Z,74.68
2023-04-02T18:04:53.672Z,74.70
2023-04-02T18:07:35.814Z,74.68
2023-04-02T18:10:15.515Z,74.82
2023-04-02T18:12:58.497Z,74.84
2023-04-02T18:15:45.219Z,74.71
2023-04-02T18:18:27.243Z,74.73
2023-04-02T18:21:11.928Z,74.71
2023-04-02T18:23:54.751Z,74.82
2023-04-02T18:26:32.284Z,74.84
2023-04-02T18:29:18.121Z,74.82
2023-04-02T18:32:33.014Z,74.90
2023-04-02T18:35:13.067Z,74.63
2023-04-02T18:37:56.828Z,74.80
2023-04-02T18:40:42.614Z,74.85
2023-04-02T18:43:29.255Z,74.75
2023-04-02T18:46:09.778Z,74.80
2023-04-02T18:48:48.154Z,74.97
2023-04-02T18:51:21.390Z,74.90
2023-04-02T18:53:54.842Z,74.91
2023-04-02T18:56:24.507Z,74.95
2023-04-02T18:59:02.318Z,74.92
2023-04-02T19:01:38.053Z,74.82
2023-04-02T19:04:12.484Z,74.87
2023-04-02T19:06:47.272Z,74.92
2023-04-02T19:09:20.428Z,74.93
2023-04-02T19:11:52.610Z,74.86
2023-04-02T19:14:24.580Z,74.93
2023-04-02T19:17:02.037Z,74.90
2023-04-02T19:19:38.797Z,74.90
2023-04-02T19:22:17.496Z,74.83
2023-04-02T19:25:08.271Z,74.77
2023-04-02T19:27:51.708Z,74.96
2023-04-02T19:30:39.632Z,74.83
2023-04-02T19:33:20.249Z,74.80
2023-04-02T19:35:58.064Z,74.76
2023-04-02T19:38:47.438Z,74.80
2023-04-02T19:41:25.893Z,74.79
2023-04-02T19:43:55.905Z,75.10
2023-04-02T19:46:26.218Z,75.03
2023-04-02T19:49:03.136Z,75.03
2023-04-02T19:51:32.992Z,75.01
2023-04-02T19:54:01.919Z,75.00
2023-04-02T19:56:31.001Z,74.92
2023-04-02T19:59:05.042Z,74.93
2023-04-02T20:01:44.224Z,74.90
2023-04-02T20:04:14.079Z,74.86
2023-04-02T20:06:43.222Z,74.85
2023-04-02T20:09:13.041Z,75.05
2023-04-02T20:11:46.124Z,74.97
2023-04-02T20:14:19.537Z,74.93
2023-04-02T20:16:49.970Z,74.93
2023-04-02T20:19:18.687Z,74.94
2023-04-02T20:21:47.425Z,74.92
2023-04-02T20:24:23.064Z,74.94
2023-04-02T20:26:54.398Z,74.98
2023-04-02T20:29:39.346Z,75.06
2023-04-02T20:32:09.467Z,74.83
2023-04-02T20:34:41.908Z,74.89
2023-04-02T20:37:12.775Z,74.88
2023-04-02T20:39:42.603Z,74.82
2023-04-02T20:42:14.534Z,74.95
2023-04-02T20:44:45.872Z,74.87
2023-04-02T20:47:19.319Z,75.01
2023-04-02T20:49:49.910Z,74.96
2023-04-02T20:52:18.660Z,74.92
2023-04-02T20:54:47.526Z,74.99
2023-04-02T20:57:21.106Z,74.84
2023-04-02T20:59:51.235Z,74.95
2023-04-02T21:02:21.159Z,74.87
2023-04-02T21:04:50.352Z,74.88
2023-04-02T21:07:19.397Z,74.84
2023-04-02T21:09:48.427Z,74.84
2023-04-02T21:12:17.618Z,74.85
2023-04-02T21:14:55.208Z,74.88
2023-04-02T21:17:33.181Z,74.90
2023-04-02T21:20:03.789Z,74.84
2023-04-02T21:22:32.935Z,74.94
2023-04-02T21:25:01.733Z,74.88
2023-04-02T21:27:30.897Z,74.93
2023-04-02T21:30:00.283Z,74.87
2023-04-02T21:32:29.566Z,74.90
2023-04-02T21:34:58.761Z,74.79
2023-04-02T21:37:27.793Z,74.91
2023-04-02T21:39:56.630Z,74.82
2023-04-02T21:42:27.126Z,74.88
2023-04-02T21:44:56.047Z,74.92
2023-04-02T21:47:27.335Z,74.99
2023-04-02T21:49:56.202Z,74.99
2023-04-02T21:52:25.260Z,74.79
2023-04-02T21:54:54.124Z,74.91
2023-04-02T21:57:23.553Z,74.83
2023-04-02T21:59:56.318Z,74.79
2023-04-02T22:02:25.356Z,74.83
2023-04-02T22:04:54.201Z,74.79
2023-04-02T22:07:23.636Z,74.79
2023-04-02T22:09:52.735Z,74.81
2023-04-02T22:12:21.882Z,74.67
2023-04-02T22:14:51.784Z,74.82
2023-04-02T22:17:21.122Z,74.69
2023-04-02T22:19:49.742Z,74.86
2023-04-02T22:22:19.088Z,74.80
2023-04-02T22:24:47.776Z,74.82
2023-04-02T22:27:17.491Z,74.68
2023-04-02T22:29:52.694Z,74.67
2023-04-02T22:32:22.477Z,74.68
2023-04-02T22:34:51.470Z,74.67
2023-04-02T22:37:20.455Z,74.58
2023-04-02T22:39:52.102Z,74.58
2023-04-02T22:42:26.152Z,74.52
2023-04-02T22:44:55.230Z,74.41
2023-04-02T22:47:24.141Z,74.53
2023-04-02T22:49:52.821Z,74.41
2023-04-02T22:52:21.808Z,74.36
2023-04-02T22:54:50.702Z,74.35
2023-04-02T22:57:21.003Z,74.30
2023-04-02T22:59:51.204Z,74.32
2023-04-02T23:02:20.520Z,74.26
2023-04-02T23:04:49.342Z,74.10
2023-04-02T23:07:18.547Z,74.15
2023-04-02T23:09:48.808Z,74.14
2023-04-02T23:12:17.648Z,74.07
2023-04-02T23:14:46.544Z,74.10
2023-04-02T23:17:15.710Z,74.01
2023-04-02T23:19:44.583Z,73.94
2023-04-02T23:22:15.439Z,73.82
2023-04-02T23:24:44.622Z,73.81
2023-04-02T23:27:15.767Z,73.72
2023-04-02T23:29:44.588Z,73.74
2023-04-02T23:32:15.738Z,73.73
2023-04-02T23:34:44.734Z,73.73
2023-04-02T23:37:14.511Z,73.62
2023-04-02T23:39:44.072Z,73.64
2023-04-02T23:42:15.577Z,73.54
2023-04-02T23:44:44.995Z,73.54
2023-04-02T23:47:15.125Z,73.50
2023-04-02T23:49:47.611Z,73.41
2023-04-02T23:52:16.580Z,73.37
2023-04-02T23:54:45.892Z,73.40
2023-04-02T23:57:16.515Z,73.37
2023-04-02T23:59:45.310Z,73.34
